Fayetteville, NC (28301)

7:18 PM EDT on September 01, 2015 (GMT -0400)
Fayetteville Regional-Grannis | | Change Station
CLOSE
Current Station
Airport
Location: Fayetteville,
Elevation: 190 ft
Nearby Weather Stations

Elev 190 ft 34.99 °N, 78.88 °W | Updated 25 minutes ago

Clear
Clear
87 °F
Feels Like 91 °F
N
4
Wind Variable Wind from South

Today
High -- | Low -- °F
--% Chance of Precip.
Yesterday
High -- | Low -- °F
Precip. -- in
6:47 AM 7:42 PM
Waning Gibbous, 85% visible
Pressure 30.03 in
Visibility 10.0 miles
Clouds Clear
Heat Index 91 °F
Dew Point 68 °F
Humidity 53%
Rainfall 0.00 in
Snow Depth Not available.
UV 0 out of 12
Pollen 8.00 out of 12
Air Quality Not available.
Flu Activity Not available.
METAR KFAY 012253Z AUTO 17003KT 10SM CLR 31/20 A3004 RMK AO2 SLP167 T03060200
Pressure 30.03 in
Visibility 10.0 miles
Clouds Clear
Heat Index 91 °F
Dew Point 68 °F
Humidity 53%
Rainfall 0.00 in
Snow Depth Not available.
UV 0 out of 12
Pollen 8.00 out of 12
Air Quality Not available.
Flu Activity Not available.
METAR KFAY 012253Z AUTO 17003KT 10SM CLR 31/20 A3004 RMK AO2 SLP167 T03060200

10-Day Weather Forecast

×

Almanac

Astronomy

Sep. 01, 2015 Rise Set
Actual Time
Civil Twilight
Nautical Twilight
Astronomical Twilight
Moon
Length of Visible Light
Length of Day
Tomorrow will be .
, % of the Moon is Illuminated

Today's Extremes

State Highs State Lows

Community

WunderPhotos

Upload Photos

1,851,638 photos uploaded!

WunderBlogs® & News

Nearby

Air Quality

  Air Quality AQ Index Pollutant
Not available.

Snow Depth

Station Depth Elevation

Earthquake Activity

City Distance Mag. Time & Date
Minimum magnitude displayed is 2.5.

Coastal Water Temperatures

Place Temperature

Stations

Nearby Weather Stations

Station Location Temp. Windchill Dew Point Humidity Wind Precip. Elev Updated Type